Time;durP1;ratioP1;P1;durP2;ratioP2;P2;SDS_P1;SDS_P2;PMS_P1;PMS_P2;Temp;Humidity;BMP_temperature;BMP_pressure;BME280_temperature;BME280_humidity;BME280_pressure;Samples;Min_cycle;Max_cycle;Signal;HPM_P1;HPM_P2
2023/06/06 00:01:19;;;;;;;3.73;2.30;;;18.00;64.20;;;;;;5014612;28;20456;-46
2023/06/06 00:03:46;;;;;;;3.57;2.33;;;18.60;65.10;;;;;;5031834;28;20446;-47
2023/06/06 00:06:13;;;;;;;3.33;2.30;;;18.60;65.20;;;;;;5032074;28;20437;-47
2023/06/06 00:08:42;;;;;;;7.57;6.07;;;18.40;65.30;;;;;;5031533;28;20577;-47
2023/06/06 00:11:10;;;;;;;3.57;2.20;;;18.80;65.80;;;;;;5032075;28;20445;-46
2023/06/06 00:13:38;;;;;;;6.93;5.77;;;18.30;65.40;;;;;;5031957;28;20459;-47
2023/06/06 00:16:05;;;;;;;4.50;2.73;;;18.20;65.30;;;;;;5014111;28;20471;-47
2023/06/06 00:18:32;;;;;;;2.87;2.20;;;18.20;65.50;;;;;;5031604;28;20435;-46
2023/06/06 00:20:58;;;;;;;2.73;2.17;;;17.90;65.30;;;;;;5035710;28;20442;-47
2023/06/06 00:23:25;;;;;;;3.43;2.17;;;18.40;66.10;;;;;;5035770;28;20474;-47
2023/06/06 00:25:53;;;;;;;3.50;2.07;;;18.10;65.90;;;;;;5035912;28;20957;-47
2023/06/06 00:28:20;;;;;;;3.73;2.57;;;18.20;66.30;;;;;;5035241;28;20821;-46
2023/06/06 00:30:48;;;;;;;3.70;2.50;;;17.70;65.90;;;;;;5035715;28;20438;-48
2023/06/06 00:33:15;;;;;;;4.00;2.30;;;17.50;65.90;;;;;;5035511;28;20448;-47
2023/06/06 00:35:42;;;;;;;3.03;2.53;;;18.00;66.50;;;;;;5017986;28;20478;-47
2023/06/06 00:38:08;;;;;;;3.97;2.30;;;17.90;66.70;;;;;;5035288;28;20449;-47
2023/06/06 00:40:35;;;;;;;9.63;2.57;;;17.80;66.90;;;;;;5035489;28;20428;-49
2023/06/06 00:43:02;;;;;;;3.13;2.27;;;17.60;66.60;;;;;;5017929;28;20424;-48
2023/06/06 00:45:28;;;;;;;3.73;2.40;;;17.60;66.80;;;;;;5017513;28;20469;-48
2023/06/06 00:47:58;;;;;;;3.60;2.53;;;17.90;67.20;;;;;;5017758;28;20484;-48
2023/06/06 00:50:25;;;;;;;5.60;2.70;;;17.30;66.60;;;;;;5035161;28;20488;-47
2023/06/06 00:52:54;;;;;;;9.70;2.80;;;17.90;67.60;;;;;;5035264;28;20531;-47
2023/06/06 00:55:22;;;;;;;5.53;2.87;;;17.90;67.50;;;;;;5036452;28;20463;-46
2023/06/06 00:57:51;;;;;;;5.53;2.57;;;17.50;67.10;;;;;;5019486;28;20446;-47
2023/06/06 01:00:18;;;;;;;3.83;2.77;;;17.80;67.50;;;;;;5018471;28;20511;-47
2023/06/06 01:02:47;;;;;;;5.17;2.57;;;17.70;67.70;;;;;;5035529;28;20495;-46
2023/06/06 01:05:18;;;;;;;3.77;2.20;;;17.60;67.50;;;;;;5035042;28;20977;-46
2023/06/06 01:07:47;;;;;;;4.80;2.70;;;17.50;67.40;;;;;;5034966;28;20451;-46
2023/06/06 01:10:14;;;;;;;6.80;2.60;;;17.30;67.10;;;;;;5016843;28;20465;-47
2023/06/06 01:12:48;;;;;;;6.07;2.60;;;17.60;67.50;;;;;;5017034;28;20449;-46
2023/06/06 01:15:21;;;;;;;3.23;2.63;;;17.70;67.70;;;;;;5017212;28;20561;-48
2023/06/06 01:17:50;;;;;;;3.40;2.53;;;17.60;67.50;;;;;;5034836;28;20435;-47
2023/06/06 01:20:21;;;;;;;3.63;2.17;;;17.60;67.50;;;;;;5034411;28;20429;-47
2023/06/06 01:22:52;;;;;;;5.53;3.00;;;17.60;67.40;;;;;;5016808;28;20449;-47
2023/06/06 01:25:21;;;;;;;3.67;2.70;;;17.60;67.30;;;;;;5034828;28;20539;-46
2023/06/06 01:27:49;;;;;;;4.40;3.00;;;17.50;67.20;;;;;;5034571;28;20500;-46
2023/06/06 01:30:18;;;;;;;2.90;2.30;;;17.90;67.70;;;;;;5016115;28;20446;-46
2023/06/06 01:32:50;;;;;;;3.43;2.30;;;17.70;67.30;;;;;;5034034;28;20441;-47
2023/06/06 01:35:25;;;;;;;3.60;2.40;;;17.60;67.20;;;;;;5016919;28;20494;-46
2023/06/06 01:37:58;;;;;;;4.50;3.00;;;17.40;67.10;;;;;;5034587;28;20434;-47
2023/06/06 01:40:27;;;;;;;3.87;2.60;;;17.70;67.40;;;;;;5016264;28;20445;-47
2023/06/06 01:42:55;;;;;;;3.90;3.20;;;17.80;67.40;;;;;;5034535;28;20932;-47
2023/06/06 01:45:27;;;;;;;3.70;2.67;;;18.00;67.70;;;;;;5016544;28;21001;-46
2023/06/06 01:47:55;;;;;;;4.27;2.60;;;17.90;67.50;;;;;;5035169;28;20476;-46
2023/06/06 01:50:22;;;;;;;3.73;2.20;;;17.40;67.00;;;;;;5035274;28;20431;-46
2023/06/06 01:52:49;;;;;;;4.73;2.23;;;17.70;67.30;;;;;;5036164;28;20421;-47
2023/06/06 01:55:17;;;;;;;3.10;2.50;;;17.40;66.90;;;;;;5018588;28;20460;-48
2023/06/06 01:57:43;;;;;;;4.10;2.40;;;17.40;66.90;;;;;;5018271;28;20453;-46
2023/06/06 02:00:12;;;;;;;4.07;2.67;;;16.90;66.30;;;;;;5018947;28;20450;-47
2023/06/06 02:02:41;;;;;;;6.13;2.80;;;17.40;67.00;;;;;;5036839;28;20401;-47
2023/06/06 02:05:08;;;;;;;4.00;2.43;;;17.20;66.90;;;;;;5035260;28;20957;-47
2023/06/06 02:07:35;;;;;;;5.00;2.47;;;17.50;67.10;;;;;;5017152;28;20756;-46
2023/06/06 02:10:05;;;;;;;4.57;2.80;;;17.60;67.30;;;;;;5016228;28;20445;-47
2023/06/06 02:12:33;;;;;;;6.80;2.80;;;17.30;66.90;;;;;;5034022;28;20511;-47
2023/06/06 02:15:02;;;;;;;4.30;2.40;;;17.50;67.50;;;;;;5033794;28;20450;-47
2023/06/06 02:17:29;;;;;;;3.93;2.80;;;16.70;66.80;;;;;;5015960;28;20499;-48
2023/06/06 02:19:56;;;;;;;3.63;2.93;;;16.80;67.00;;;;;;5015557;28;20445;-47
2023/06/06 02:22:23;;;;;;;2.93;2.30;;;16.70;66.90;;;;;;5033689;28;20438;-46
2023/06/06 02:24:52;;;;;;;4.20;2.67;;;17.20;67.50;;;;;;5015682;28;20827;-47
2023/06/06 02:27:19;;;;;;;3.10;2.50;;;17.10;67.40;;;;;;5033563;28;20441;-47
2023/06/06 02:29:47;;;;;;;4.73;2.33;;;17.10;67.50;;;;;;5015291;28;20486;-47
2023/06/06 02:32:15;;;;;;;3.27;2.60;;;17.10;67.50;;;;;;5015555;28;20444;-47
2023/06/06 02:34:42;;;;;;;3.50;2.63;;;17.10;67.80;;;;;;5015863;28;20477;-49
2023/06/06 02:37:09;;;;;;;4.43;3.23;;;17.30;67.90;;;;;;5015529;28;20457;-47
2023/06/06 02:39:36;;;;;;;3.93;2.77;;;17.00;67.70;;;;;;5015409;28;20558;-47
2023/06/06 02:42:03;;;;;;;4.10;2.53;;;17.00;67.60;;;;;;5015770;28;20483;-47
2023/06/06 02:44:31;;;;;;;10.90;2.73;;;17.00;67.80;;;;;;5033744;28;20463;-47
2023/06/06 02:46:59;;;;;;;4.57;3.20;;;17.00;67.80;;;;;;5016127;28;20515;-47
2023/06/06 02:49:27;;;;;;;4.93;2.60;;;17.40;68.40;;;;;;5033135;28;20483;-47
2023/06/06 02:51:54;;;;;;;4.30;2.90;;;17.00;68.10;;;;;;5015773;28;20456;-46
2023/06/06 02:54:20;;;;;;;4.83;2.43;;;17.00;68.00;;;;;;5032978;28;20872;-47
2023/06/06 02:56:47;;;;;;;3.17;2.43;;;17.10;68.20;;;;;;5015446;28;20913;-47
2023/06/06 02:59:14;;;;;;;7.93;2.87;;;17.40;68.40;;;;;;5014979;28;20452;-47
2023/06/06 03:01:44;;;;;;;6.87;2.90;;;17.20;68.30;;;;;;5015326;28;20975;-47
2023/06/06 03:04:13;;;;;;;3.97;3.20;;;16.90;68.10;;;;;;5015084;28;20848;-47
2023/06/06 03:06:40;;;;;;;5.37;3.00;;;17.20;68.60;;;;;;5015054;28;20455;-47
2023/06/06 03:09:07;;;;;;;8.80;2.80;;;16.90;68.30;;;;;;5033782;28;20468;-46
2023/06/06 03:11:35;;;;;;;4.20;3.20;;;16.90;68.60;;;;;;5016053;28;20453;-46
2023/06/06 03:14:02;;;;;;;3.53;2.63;;;17.30;69.20;;;;;;5015370;28;20874;-46
2023/06/06 03:16:34;;;;;;;5.70;3.20;;;16.90;68.80;;;;;;5015360;28;20564;-46
2023/06/06 03:19:03;;;;;;;8.10;3.20;;;17.30;69.30;;;;;;5014525;28;20490;-46
2023/06/06 03:21:33;;;;;;;5.13;3.80;;;17.20;69.30;;;;;;5014816;28;20490;-47
2023/06/06 03:24:00;;;;;;;5.13;3.80;;;17.30;69.40;;;;;;5015127;28;20809;-48
2023/06/06 03:26:27;;;;;;;8.90;3.80;;;16.80;69.40;;;;;;5032546;28;20434;-47
2023/06/06 03:28:58;;;;;;;6.30;4.17;;;17.00;69.60;;;;;;5014314;28;20502;-47
2023/06/06 03:31:29;;;;;;;5.20;4.17;;;17.00;69.60;;;;;;5014742;28;20459;-48
2023/06/06 03:33:56;;;;;;;5.00;4.27;;;16.80;69.60;;;;;;5032347;28;20479;-47
2023/06/06 03:36:26;;;;;;;7.70;3.77;;;16.70;69.50;;;;;;5014911;28;20462;-48
2023/06/06 03:38:54;;;;;;;8.17;4.17;;;17.30;70.30;;;;;;5014335;28;20976;-47
2023/06/06 03:41:22;;;;;;;3.97;3.30;;;16.80;69.90;;;;;;5014624;28;20483;-47
2023/06/06 03:43:49;;;;;;;8.20;4.93;;;16.70;69.90;;;;;;5014308;28;20452;-48
2023/06/06 03:46:16;;;;;;;5.77;3.73;;;16.90;70.40;;;;;;5014755;28;20449;-47
2023/06/06 03:48:43;;;;;;;5.60;3.63;;;16.60;70.10;;;;;;5014104;28;20507;-48
2023/06/06 03:51:10;;;;;;;8.87;4.67;;;16.70;70.30;;;;;;5032127;28;20414;-47
2023/06/06 03:53:36;;;;;;;4.80;3.90;;;16.70;70.40;;;;;;5014093;28;20564;-47
2023/06/06 03:56:06;;;;;;;5.03;4.20;;;17.00;70.80;;;;;;5014212;28;20482;-47
2023/06/06 03:58:33;;;;;;;5.37;4.40;;;16.70;70.40;;;;;;5031648;28;20455;-47
2023/06/06 04:01:01;;;;;;;6.47;4.37;;;16.70;70.40;;;;;;5031999;28;20527;-47
2023/06/06 04:03:35;;;;;;;5.60;3.73;;;16.90;70.60;;;;;;5014201;28;20458;-47
2023/06/06 04:06:04;;;;;;;3.80;2.90;;;16.70;70.20;;;;;;5014245;28;21042;-47
2023/06/06 04:08:31;;;;;;;8.57;3.07;;;16.90;70.30;;;;;;5013931;28;20589;-46
2023/06/06 04:10:57;;;;;;;5.77;3.50;;;17.30;70.60;;;;;;5013929;28;20448;-47
2023/06/06 04:13:26;;;;;;;10.30;3.70;;;17.30;70.60;;;;;;5014173;28;20448;-47
2023/06/06 04:15:53;;;;;;;4.87;3.40;;;17.10;70.20;;;;;;5031833;28;20457;-46
2023/06/06 04:18:20;;;;;;;6.27;3.53;;;16.90;69.90;;;;;;5031500;28;20444;-46
2023/06/06 04:20:46;;;;;;;5.73;4.10;;;16.90;69.60;;;;;;5014085;28;20452;-46
2023/06/06 04:23:13;;;;;;;10.97;4.40;;;17.30;69.80;;;;;;5032124;28;20498;-46
2023/06/06 04:25:39;;;;;;;6.73;3.77;;;17.40;69.60;;;;;;5015355;28;20932;-46
2023/06/06 04:28:06;;;;;;;6.50;3.87;;;17.50;69.10;;;;;;5015470;28;20507;-46
2023/06/06 04:30:35;;;;;;;8.40;3.50;;;17.40;68.90;;;;;;5014697;28;20851;-47
2023/06/06 04:33:02;;;;;;;7.00;3.73;;;17.80;68.90;;;;;;5013993;28;20458;-47
2023/06/06 04:35:30;;;;;;;4.87;3.27;;;18.00;68.80;;;;;;5031739;28;20460;-46
2023/06/06 04:37:57;;;;;;;4.60;3.30;;;17.80;68.30;;;;;;5031675;28;20450;-47
2023/06/06 04:40:24;;;;;;;4.83;3.23;;;18.30;68.30;;;;;;5013544;28;20537;-47
2023/06/06 04:42:57;;;;;;;7.10;3.50;;;17.60;67.10;;;;;;5013639;28;20460;-47
2023/06/06 04:45:24;;;;;;;91.10;36.83;;;18.10;67.30;;;;;;5013642;28;20489;-47
2023/06/06 04:47:55;;;;;;;7.47;3.40;;;18.20;67.20;;;;;;5013860;28;20458;-47
2023/06/06 04:50:23;;;;;;;5.77;3.70;;;18.20;66.70;;;;;;5013595;28;20505;-48
2023/06/06 04:52:50;;;;;;;9.30;4.10;;;18.60;66.80;;;;;;5013659;28;20527;-47
2023/06/06 04:55:18;;;;;;;4.83;3.77;;;18.30;66.30;;;;;;5031312;28;20462;-47
2023/06/06 04:57:44;;;;;;;6.10;3.10;;;18.40;66.20;;;;;;5031714;28;20437;-48
2023/06/06 05:00:14;;;;;;;5.10;3.83;;;18.80;66.50;;;;;;5031377;28;20423;-48
2023/06/06 05:02:40;;;;;;;5.97;3.70;;;18.90;66.20;;;;;;5031164;28;20934;-47
2023/06/06 05:05:10;;;;;;;7.90;4.47;;;18.60;65.60;;;;;;5031582;28;20488;-47
2023/06/06 05:07:37;;;;;;;6.93;3.73;;;18.70;65.40;;;;;;5034685;28;20492;-47
2023/06/06 05:10:04;;;;;;;6.03;4.27;;;18.80;65.30;;;;;;5034515;28;20547;-47
2023/06/06 05:12:31;;;;;;;6.90;4.17;;;18.90;65.20;;;;;;5035328;28;20423;-47
2023/06/06 05:14:58;;;;;;;8.43;5.00;;;19.30;65.20;;;;;;5035130;28;20467;-47
2023/06/06 05:17:26;;;;;;;8.40;5.20;;;19.20;64.80;;;;;;5034935;28;20800;-47
2023/06/06 05:19:54;;;;;;;7.60;3.60;;;19.40;64.50;;;;;;5035157;28;20813;-47
2023/06/06 05:22:22;;;;;;;14.73;4.77;;;19.60;64.20;;;;;;5036061;28;20876;-47
2023/06/06 05:24:48;;;;;;;8.23;3.90;;;19.60;63.70;;;;;;5036225;28;20458;-47
2023/06/06 05:27:15;;;;;;;7.23;4.70;;;19.70;63.60;;;;;;5036479;28;20431;-46
2023/06/06 05:29:42;;;;;;;17.30;13.50;;;19.90;63.60;;;;;;5036293;28;20515;-47
2023/06/06 05:32:09;;;;;;;10.33;3.90;;;19.80;63.40;;;;;;5036441;28;20979;-48
2023/06/06 05:34:38;;;;;;;7.10;4.30;;;19.80;63.40;;;;;;5037491;28;20473;-48
2023/06/06 05:37:06;;;;;;;8.13;4.53;;;19.70;63.20;;;;;;5036731;28;20414;-46
2023/06/06 05:39:33;;;;;;;7.23;3.80;;;20.10;64.20;;;;;;5035470;28;20417;-50
2023/06/06 05:42:00;;;;;;;6.23;3.33;;;20.20;62.60;;;;;;5034154;28;20907;-48
2023/06/06 05:44:27;;;;;;;8.50;3.60;;;20.30;61.80;;;;;;5047447;22;20494;-48
2023/06/06 05:46:55;;;;;;;5.97;3.50;;;20.30;61.80;;;;;;5033321;28;20454;-49
2023/06/06 05:49:21;;;;;;;5.27;3.40;;;20.30;61.30;;;;;;5032732;28;20475;-47
2023/06/06 05:51:48;;;;;;;7.97;3.73;;;20.70;61.20;;;;;;5033180;28;20439;-48
2023/06/06 05:54:15;;;;;;;9.97;3.23;;;20.90;61.00;;;;;;5015462;28;20459;-49
2023/06/06 05:56:43;;;;;;;9.67;7.60;;;20.60;60.60;;;;;;5033220;28;20471;-47
2023/06/06 05:59:10;;;;;;;6.10;3.70;;;20.70;60.40;;;;;;5032848;28;20816;-48
2023/06/06 06:01:39;;;;;;;8.10;4.10;;;20.40;59.70;;;;;;5033316;28;20515;-48
2023/06/06 06:04:07;;;;;;;7.10;3.27;;;20.90;60.10;;;;;;5015540;28;20448;-47
2023/06/06 06:06:35;;;;;;;6.17;2.80;;;21.00;59.90;;;;;;5033407;28;20429;-46
2023/06/06 06:09:03;;;;;;;7.47;3.50;;;21.10;59.40;;;;;;5033084;28;20476;-48
2023/06/06 06:11:30;;;;;;;6.37;3.33;;;21.20;59.20;;;;;;5033188;28;20433;-48
2023/06/06 06:13:58;;;;;;;5.20;2.90;;;21.30;58.80;;;;;;5033563;28;20441;-47
2023/06/06 06:16:25;;;;;;;17.63;3.33;;;21.40;58.60;;;;;;5032993;28;20460;-49
2023/06/06 06:18:51;;;;;;;6.40;3.20;;;21.50;58.50;;;;;;5033042;28;20529;-48
2023/06/06 06:21:19;;;;;;;10.40;3.07;;;21.50;58.00;;;;;;5033003;28;20433;-48
2023/06/06 06:23:46;;;;;;;10.50;3.30;;;21.70;57.80;;;;;;5032896;28;20444;-48
2023/06/06 06:26:12;;;;;;;11.20;3.60;;;21.70;57.30;;;;;;5014936;28;20470;-47
2023/06/06 06:28:39;;;;;;;11.57;3.47;;;21.90;56.60;;;;;;5032295;28;20441;-49
2023/06/06 06:31:07;;;;;;;11.33;3.83;;;21.90;56.30;;;;;;5032585;28;20486;-48
2023/06/06 06:33:33;;;;;;;10.30;4.00;;;21.90;55.90;;;;;;5032675;28;20768;-48
2023/06/06 06:36:00;;;;;;;10.40;3.50;;;22.00;56.00;;;;;;5032326;28;20819;-47
2023/06/06 06:38:27;;;;;;;15.17;3.60;;;22.00;56.00;;;;;;5031683;28;20760;-49
2023/06/06 06:40:54;;;;;;;7.63;4.10;;;22.00;56.10;;;;;;5032185;28;20796;-48
2023/06/06 06:43:21;;;;;;;5.30;3.27;;;22.10;56.30;;;;;;5032445;28;20434;-47
2023/06/06 06:45:55;;;;;;;8.00;3.77;;;22.10;56.10;;;;;;5014051;28;20591;-50
2023/06/06 06:48:23;;;;;;;7.10;3.80;;;22.40;56.30;;;;;;5031819;28;20431;-48
2023/06/06 06:50:50;;;;;;;10.60;3.80;;;22.00;56.20;;;;;;5032236;28;20482;-49
2023/06/06 06:53:17;;;;;;;4.40;3.40;;;22.00;56.50;;;;;;5032181;28;20435;-48
2023/06/06 06:55:45;;;;;;;13.80;4.73;;;21.90;56.50;;;;;;5032235;28;20468;-49
2023/06/06 06:58:13;;;;;;;18.30;4.40;;;21.90;56.70;;;;;;5031871;28;20435;-48
2023/06/06 07:00:39;;;;;;;5.80;3.33;;;21.90;56.80;;;;;;5031950;28;20435;-47
2023/06/06 07:03:08;;;;;;;9.87;3.90;;;22.00;57.00;;;;;;5031918;28;20958;-48
2023/06/06 07:05:36;;;;;;;5.17;3.37;;;21.80;56.70;;;;;;5032188;28;20463;-47
2023/06/06 07:08:02;;;;;;;9.97;4.20;;;21.90;56.60;;;;;;5032236;28;20437;-47
2023/06/06 07:10:31;;;;;;;10.33;3.80;;;21.90;56.60;;;;;;5031958;28;20475;-47
2023/06/06 07:12:58;;;;;;;6.13;3.50;;;21.90;56.70;;;;;;5032088;28;20438;-47
2023/06/06 07:15:27;;;;;;;8.77;4.30;;;21.90;56.80;;;;;;5013931;28;20521;-47
2023/06/06 07:17:55;;;;;;;7.03;4.00;;;21.90;56.80;;;;;;5032122;28;20440;-49
2023/06/06 07:20:23;;;;;;;10.30;3.97;;;22.00;56.60;;;;;;5031877;28;20481;-47
2023/06/06 07:22:53;;;;;;;12.33;3.60;;;22.10;56.60;;;;;;5031822;28;20883;-49
2023/06/06 07:25:20;;;;;;;15.33;3.77;;;22.20;57.20;;;;;;5032214;28;20455;-49
2023/06/06 07:27:47;;;;;;;12.43;4.03;;;22.30;56.70;;;;;;5031883;28;20797;-48
2023/06/06 07:30:14;;;;;;;7.87;4.20;;;22.40;56.60;;;;;;5013344;28;20544;-47
2023/06/06 07:32:42;;;;;;;9.63;4.00;;;22.60;56.40;;;;;;5031643;28;20490;-48
2023/06/06 07:35:10;;;;;;;10.60;4.23;;;22.70;56.20;;;;;;5031946;28;20459;-46
2023/06/06 07:37:37;;;;;;;7.10;4.73;;;22.90;56.20;;;;;;5032126;28;20435;-48
2023/06/06 07:40:07;;;;;;;10.17;3.80;;;23.10;55.80;;;;;;5013997;28;20960;-47
2023/06/06 07:42:34;;;;;;;10.30;3.93;;;23.30;55.60;;;;;;5032183;28;20993;-47
2023/06/06 07:45:01;;;;;;;5.50;3.20;;;23.40;55.20;;;;;;5014298;28;20484;-47
2023/06/06 07:47:27;;;;;;;11.37;3.97;;;23.50;54.80;;;;;;5031992;28;20434;-47
2023/06/06 07:49:54;;;;;;;5.60;3.97;;;23.70;54.70;;;;;;5031372;28;20473;-47
2023/06/06 07:52:21;;;;;;;7.93;3.60;;;23.80;54.70;;;;;;5031665;28;20512;-49
2023/06/06 07:54:47;;;;;;;5.20;3.23;;;23.90;54.30;;;;;;5031735;28;20453;-48
2023/06/06 07:57:16;;;;;;;7.93;3.50;;;24.00;54.20;;;;;;5031820;28;20561;-47
2023/06/06 07:59:43;;;;;;;10.03;3.57;;;24.20;54.30;;;;;;5031342;28;20787;-48
2023/06/06 08:02:13;;;;;;;11.23;3.50;;;24.10;54.10;;;;;;5031928;28;20447;-48
2023/06/06 08:04:42;;;;;;;4.70;3.40;;;24.10;54.10;;;;;;5031508;28;20465;-47
2023/06/06 08:07:09;;;;;;;7.80;4.00;;;24.20;54.30;;;;;;5031337;28;20448;-48
2023/06/06 08:09:36;;;;;;;9.40;3.20;;;24.20;54.20;;;;;;5031416;28;20574;-48
2023/06/06 08:12:03;;;;;;;12.17;4.40;;;24.30;54.10;;;;;;5031689;28;20443;-48
2023/06/06 08:14:31;;;;;;;6.30;3.50;;;24.30;53.50;;;;;;5031532;28;20466;-46
2023/06/06 08:16:58;;;;;;;12.93;3.90;;;24.40;53.80;;;;;;5031372;28;21049;-48
2023/06/06 08:19:26;;;;;;;9.17;4.60;;;24.40;53.70;;;;;;5030852;28;20438;-48
2023/06/06 08:21:52;;;;;;;9.67;4.03;;;24.30;53.80;;;;;;5031154;28;20439;-48
2023/06/06 08:24:19;;;;;;;8.03;3.60;;;24.50;53.70;;;;;;5031340;28;20511;-47
2023/06/06 08:26:46;;;;;;;6.80;4.27;;;24.60;53.70;;;;;;5030931;28;20799;-47
2023/06/06 08:29:14;;;;;;;5.57;3.60;;;24.70;53.30;;;;;;5030906;28;20448;-49
2023/06/06 08:31:43;;;;;;;7.60;3.87;;;24.80;53.20;;;;;;5031454;28;20487;-47
2023/06/06 08:34:10;;;;;;;5.33;3.50;;;24.90;52.70;;;;;;5031564;28;20431;-46
2023/06/06 08:36:38;;;;;;;8.20;4.10;;;24.90;52.50;;;;;;5031337;28;20443;-49
2023/06/06 08:39:06;;;;;;;9.30;3.67;;;24.90;52.10;;;;;;5030975;28;20503;-47
2023/06/06 08:41:33;;;;;;;10.87;3.60;;;24.90;52.40;;;;;;5034139;28;20435;-48
2023/06/06 08:44:00;;;;;;;8.00;3.60;;;24.90;52.60;;;;;;5035395;28;20431;-51
2023/06/06 08:46:32;;;;;;;11.10;3.00;;;25.00;52.60;;;;;;5016777;28;20475;-48
2023/06/06 08:49:02;;;;;;;10.43;3.37;;;25.10;52.50;;;;;;5035261;28;20431;-47
2023/06/06 08:51:29;;;;;;;6.07;3.50;;;25.10;52.00;;;;;;5035360;28;20478;-47
2023/06/06 08:53:56;;;;;;;5.53;3.60;;;24.90;51.90;;;;;;5017242;28;20511;-49
2023/06/06 08:56:23;;;;;;;6.27;3.70;;;25.00;51.90;;;;;;5034734;28;20491;-48
2023/06/06 08:58:52;;;;;;;6.53;4.40;;;25.10;51.60;;;;;;5034405;28;20792;-48
2023/06/06 09:01:20;;;;;;;5.60;4.10;;;25.20;51.50;;;;;;5034201;28;20498;-47
2023/06/06 09:03:48;;;;;;;9.87;4.27;;;25.10;51.00;;;;;;5034714;28;20439;-49
2023/06/06 09:06:16;;;;;;;9.07;4.37;;;25.10;51.50;;;;;;5033698;28;21086;-49
2023/06/06 09:08:44;;;;;;;6.37;4.10;;;25.40;50.30;;;;;;5034110;28;20436;-47
2023/06/06 09:11:11;;;;;;;10.90;4.20;;;25.30;50.30;;;;;;5034314;28;20890;-48
2023/06/06 09:13:40;;;;;;;6.93;3.97;;;25.40;50.50;;;;;;5034375;28;20950;-49
2023/06/06 09:16:08;;;;;;;8.70;4.30;;;25.50;50.50;;;;;;5034666;28;20462;-49
2023/06/06 09:18:35;;;;;;;9.33;4.50;;;25.60;50.10;;;;;;5034135;28;20454;-49
2023/06/06 09:21:02;;;;;;;9.30;6.20;;;25.50;50.10;;;;;;5016121;28;20457;-47
2023/06/06 09:23:31;;;;;;;6.53;4.00;;;25.60;50.20;;;;;;5034270;28;20442;-50
2023/06/06 09:25:57;;;;;;;12.47;3.83;;;25.70;50.20;;;;;;5034042;28;21036;-47
2023/06/06 09:28:37;;;;;;;7.07;4.27;;;25.80;50.10;;;;;;5035044;28;20439;-52
2023/06/06 09:31:23;;;;;;;11.97;5.07;;;26.00;50.00;;;;;;5034476;28;20489;-49
2023/06/06 09:33:50;;;;;;;8.23;4.30;;;26.00;49.70;;;;;;5016686;28;20479;-49
2023/06/06 09:36:19;;;;;;;9.20;4.30;;;26.00;49.80;;;;;;5033870;28;20456;-49
2023/06/06 09:38:47;;;;;;;8.10;4.23;;;26.00;49.80;;;;;;5033781;28;20442;-49
2023/06/06 09:41:14;;;;;;;10.50;4.30;;;26.10;49.90;;;;;;5016262;28;20447;-49
2023/06/06 09:43:40;;;;;;;9.07;4.57;;;26.10;49.80;;;;;;5033888;28;20531;-50
2023/06/06 09:46:07;;;;;;;11.63;4.10;;;26.00;49.80;;;;;;5033895;28;20485;-49
2023/06/06 09:48:33;;;;;;;9.27;3.83;;;26.20;49.60;;;;;;5033349;28;20439;-49
2023/06/06 09:51:00;;;;;;;9.80;4.00;;;26.30;49.70;;;;;;5033701;28;20478;-50
2023/06/06 09:53:28;;;;;;;6.60;3.90;;;26.40;49.70;;;;;;5033112;28;20438;-50
2023/06/06 09:56:01;;;;;;;7.50;4.70;;;26.50;49.60;;;;;;5033707;28;20478;-49
2023/06/06 09:58:32;;;;;;;21.17;5.03;;;26.60;49.40;;;;;;5033474;28;20485;-49
2023/06/06 10:00:59;;;;;;;5.07;4.10;;;26.70;49.40;;;;;;5033985;28;20474;-49
2023/06/06 10:03:26;;;;;;;6.97;3.90;;;26.80;49.40;;;;;;5033642;28;20489;-49
2023/06/06 10:05:53;;;;;;;9.97;3.80;;;26.80;49.40;;;;;;5033706;28;20459;-49
2023/06/06 10:08:22;;;;;;;11.80;5.00;;;26.90;49.40;;;;;;5016072;28;20487;-50
2023/06/06 10:10:50;;;;;;;6.43;3.37;;;27.00;49.20;;;;;;5033235;28;20580;-49
2023/06/06 10:13:19;;;;;;;8.13;4.30;;;26.90;49.30;;;;;;5033144;28;20436;-49
2023/06/06 10:15:46;;;;;;;7.17;4.17;;;27.00;49.40;;;;;;5032941;28;20459;-49
2023/06/06 10:18:14;;;;;;;10.13;4.47;;;27.00;49.60;;;;;;5032843;28;20454;-49
2023/06/06 10:20:41;;;;;;;7.70;3.97;;;27.00;49.60;;;;;;5032986;28;20435;-50
2023/06/06 10:23:08;;;;;;;7.33;3.83;;;27.00;49.40;;;;;;5033253;28;20926;-49
2023/06/06 10:25:36;;;;;;;9.27;4.50;;;27.10;49.40;;;;;;5033389;28;20458;-49
2023/06/06 10:28:10;;;;;;;6.13;4.50;;;27.10;49.40;;;;;;5033348;28;20439;-50
2023/06/06 10:30:51;;;;;;;8.98;4.25;;;27.20;49.50;;;;;;5032261;28;20495;-50
2023/06/06 10:33:32;;;;;;;11.63;4.77;;;27.40;48.80;;;;;;5032953;28;20208;-49
2023/06/06 10:36:04;;;;;;;8.93;4.33;;;27.40;49.20;;;;;;5033127;28;20835;-49
2023/06/06 10:38:30;;;;;;;6.07;4.30;;;27.40;49.40;;;;;;5032702;28;20726;-49
2023/06/06 10:40:58;;;;;;;23.93;5.27;;;27.50;49.20;;;;;;5032668;28;20921;-49
2023/06/06 10:43:50;;;;;;;5.37;3.47;;;27.60;49.20;;;;;;5033123;28;20793;-51
2023/06/06 10:46:18;;;;;;;5.27;3.70;;;27.50;48.90;;;;;;5032463;28;20524;-49
2023/06/06 10:48:48;;;;;;;6.77;4.00;;;27.30;49.10;;;;;;5032286;28;20440;-48
2023/06/06 10:51:30;;;;;;;7.70;4.83;;;27.50;49.10;;;;;;5032598;28;20478;-49
2023/06/06 10:54:14;;;;;;;5.47;3.80;;;27.60;48.90;;;;;;5032748;28;20435;-48
2023/06/06 10:56:44;;;;;;;9.53;5.80;;;27.60;48.50;;;;;;5032535;28;20442;-50
2023/06/06 10:59:11;;;;;;;6.47;4.10;;;27.60;48.70;;;;;;5031947;28;20439;-50
2023/06/06 11:01:41;;;;;;;8.27;4.60;;;27.70;48.50;;;;;;5032480;28;20432;-49
2023/06/06 11:04:18;;;;;;;7.23;3.37;;;27.70;48.30;;;;;;5032134;28;20438;-49
2023/06/06 11:06:45;;;;;;;18.63;5.13;;;27.70;47.90;;;;;;5032532;28;20478;-49
2023/06/06 11:09:22;;;;;;;6.20;3.83;;;27.80;48.10;;;;;;5031964;28;20434;-49
2023/06/06 11:11:49;;;;;;;9.57;4.20;;;27.90;47.40;;;;;;5032228;28;20975;-51
2023/06/06 11:14:21;;;;;;;11.23;5.00;;;27.80;47.20;;;;;;5032266;28;20485;-50
2023/06/06 11:17:02;;;;;;;7.27;4.57;;;27.80;47.30;;;;;;5032223;28;20967;-49
2023/06/06 11:19:37;;;;;;;6.60;3.40;;;27.90;46.80;;;;;;5031649;28;20427;-51
2023/06/06 11:22:04;;;;;;;12.83;4.33;;;27.80;47.10;;;;;;5032196;28;20527;-49
2023/06/06 11:24:36;;;;;;;9.53;4.43;;;27.90;47.20;;;;;;5032246;28;20454;-49
2023/06/06 11:27:05;;;;;;;5.10;3.57;;;27.70;46.90;;;;;;5014518;28;20871;-50
2023/06/06 11:29:33;;;;;;;6.93;4.20;;;27.90;46.90;;;;;;5033129;28;20467;-50
2023/06/06 11:32:01;;;;;;;4.53;3.93;;;27.90;46.80;;;;;;5031599;28;20563;-49
2023/06/06 11:34:27;;;;;;;6.77;4.60;;;28.00;46.60;;;;;;5013907;28;20480;-51
2023/06/06 11:36:56;;;;;;;7.73;3.83;;;28.10;46.70;;;;;;5031773;28;20454;-50
2023/06/06 11:39:28;;;;;;;5.10;4.63;;;28.10;46.60;;;;;;5031146;28;20438;-49
2023/06/06 11:41:56;;;;;;;6.13;3.20;;;28.10;46.70;;;;;;5031953;28;20521;-49
2023/06/06 11:44:30;;;;;;;4.50;4.10;;;28.10;46.60;;;;;;5013582;28;20909;-50
2023/06/06 11:46:57;;;;;;;5.77;4.40;;;28.10;46.50;;;;;;5062266;22;20489;-52
2023/06/06 11:49:25;;;;;;;10.20;3.67;;;28.10;46.40;;;;;;5051519;28;20437;-51
2023/06/06 11:51:56;;;;;;;5.57;4.20;;;28.00;46.20;;;;;;5033686;28;20485;-50
2023/06/06 11:54:22;;;;;;;6.63;4.00;;;28.10;46.10;;;;;;5052130;28;20836;-49
2023/06/06 11:56:51;;;;;;;4.90;4.40;;;28.10;46.20;;;;;;5051398;28;20458;-50
2023/06/06 11:59:19;;;;;;;8.27;4.03;;;28.10;46.20;;;;;;5051457;28;20429;-51
2023/06/06 12:01:50;;;;;;;4.90;4.00;;;28.10;46.00;;;;;;5051475;28;20434;-50
2023/06/06 12:04:18;;;;;;;5.07;3.90;;;28.10;45.80;;;;;;5051714;28;20441;-49
2023/06/06 12:06:51;;;;;;;5.20;3.73;;;28.10;45.80;;;;;;5050986;28;20457;-49
2023/06/06 12:09:19;;;;;;;6.93;4.03;;;28.10;45.70;;;;;;5051155;28;20481;-51
2023/06/06 12:11:54;;;;;;;5.00;3.70;;;28.20;45.70;;;;;;5033499;28;20568;-51
2023/06/06 12:14:22;;;;;;;5.50;3.43;;;28.00;45.70;;;;;;5051506;28;20902;-51
2023/06/06 12:16:49;;;;;;;7.83;4.17;;;27.90;45.50;;;;;;5054569;28;20888;-51
2023/06/06 12:19:16;;;;;;;7.10;3.60;;;27.40;45.40;;;;;;5036837;28;20450;-51
2023/06/06 12:21:49;;;;;;;7.63;3.67;;;27.70;45.80;;;;;;5055738;28;20431;-50
2023/06/06 12:24:20;;;;;;;4.03;3.63;;;27.80;45.90;;;;;;5055409;28;20434;-49
2023/06/06 12:26:53;;;;;;;5.70;3.80;;;27.80;45.60;;;;;;5055460;28;20460;-48
2023/06/06 12:29:20;;;;;;;5.43;3.60;;;27.90;45.60;;;;;;5055170;28;20656;-49
2023/06/06 12:31:49;;;;;;;8.53;3.80;;;27.80;45.60;;;;;;5055438;28;20476;-50
2023/06/06 12:34:16;;;;;;;5.33;3.77;;;27.80;45.70;;;;;;5055274;28;20960;-49
2023/06/06 12:36:42;;;;;;;5.50;4.30;;;27.80;45.90;;;;;;5055582;28;20450;-51
2023/06/06 12:39:13;;;;;;;7.17;4.10;;;27.80;45.80;;;;;;5054681;28;20438;-50
2023/06/06 12:41:41;;;;;;;6.27;3.67;;;27.80;45.70;;;;;;5037136;28;20480;-50
2023/06/06 12:44:11;;;;;;;8.40;3.90;;;27.80;45.90;;;;;;5055086;28;20445;-50
2023/06/06 12:46:38;;;;;;;5.60;4.37;;;27.70;46.10;;;;;;5055014;28;21054;-51
2023/06/06 12:49:05;;;;;;;6.40;3.60;;;27.70;46.20;;;;;;5036873;28;20491;-51
2023/06/06 12:51:33;;;;;;;6.50;3.87;;;27.70;46.10;;;;;;5055040;28;20503;-48